PWSweather.com
Personal Weather Stations
Station Observations
KAZPHOEN90
RayThunderhill, Phoenix, AZ

RayThunderhillPhoenix, AZ

Lat: 33.312, Lon: -112.029

Elevation: 1260

Station Type: Davis Vantage VUE

High Low Average
Temperature 85.3°F29.6°F 59.9°F15.5°F 74.7°F23.7°F
Dew Point 40.6°F4.8°F 27.6°F-2.4°F 35.1°F1.7°F
Winds 3.2 mph W5.1 mph W Calm Calm 0.6 mph 1.0 mph
Wind Gusts 7.0 mph11.3 mph -- 1.7 mph2.7 mph
Humidity 45% 14% 25%
Pressure 29.85 in1010.80 in 29.72 in1006.40 in -
Precipitation 0.00 in0.00 in - -
Hour Temp Dew Point Humidity Winds Wind Gusts Pressure Precip Precip Rate Daily Precip Total
12:00 AM 73.8°F23.2°C 27.6°F-2.4°C 18% 1.0 mph WSW1.6 kmh WSW 4.0 mph6.4 kmh 29.80 in1009.1 mb - 0.00 in0.0 mm 0.00 in0.0 mm
12:15 AM 73.5°F23.1°C 28.7°F-1.8°C 19% 3.2 mph W5.1 kmh W 7.0 mph11.3 kmh 29.80 in1009.1 mb - 0.00 in0.0 mm 0.00 in0.0 mm
12:30 AM 72.8°F22.7°C 29.3°F-1.5°C 20% 2.3 mph W3.7 kmh W 3.0 mph4.8 kmh 29.80 in1009.1 mb - 0.00 in0.0 mm 0.00 in0.0 mm
12:45 AM 72.0°F22.2°C 32.1°F0.1°C 23% 1.5 mph W2.4 kmh W 4.0 mph6.4 kmh 29.80 in1009.1 mb - 0.00 in0.0 mm 0.00 in0.0 mm
01:00 AM 71.2°F21.8°C 34.5°F1.4°C 26% 0.8 mph WSW1.3 kmh WSW 5.0 mph8.0 kmh 29.80 in1009.1 mb - 0.00 in0.0 mm 0.00 in0.0 mm
01:15 AM 70.1°F21.2°C 35.4°F1.9°C 28% Calm Calm -- 29.80 in1009.1 mb - 0.00 in0.0 mm 0.00 in0.0 mm
01:30 AM 69.0°F20.6°C 36.3°F2.4°C 30% 0.1 mph SSE0.2 kmh SSE -- 29.80 in1009.1 mb - 0.00 in0.0 mm 0.00 in0.0 mm
01:45 AM 68.0°F20.0°C 37.0°F2.8°C 32% 0.1 mph WSW0.2 kmh WSW 1.0 mph1.6 kmh 29.80 in1009.1 mb - 0.00 in0.0 mm 0.00 in0.0 mm
02:00 AM 67.1°F19.5°C 37.0°F2.8°C 33% Calm Calm -- 29.80 in1009.1 mb - 0.00 in0.0 mm 0.00 in0.0 mm
02:15 AM 66.3°F19.1°C 37.1°F2.8°C 34% 0.2 mph WSW0.3 kmh WSW 2.0 mph3.2 kmh 29.80 in1009.1 mb - 0.00 in0.0 mm 0.00 in0.0 mm
02:30 AM 66.5°F19.2°C 37.2°F2.9°C 34% 0.7 mph SW1.1 kmh SW 2.0 mph3.2 kmh 29.79 in1008.8 mb - 0.00 in0.0 mm 0.00 in0.0 mm
02:45 AM 67.8°F19.9°C 35.2°F1.8°C 30% 1.7 mph SW2.7 kmh SW 4.0 mph6.4 kmh 29.79 in1008.8 mb - 0.00 in0.0 mm 0.00 in0.0 mm
03:00 AM 69.1°F20.6°C 35.5°F1.9°C 29% 1.6 mph W2.6 kmh W 3.0 mph4.8 kmh 29.79 in1008.8 mb - 0.00 in0.0 mm 0.00 in0.0 mm
03:15 AM 68.6°F20.3°C 35.1°F1.7°C 29% Calm Calm -- 29.79 in1008.8 mb - 0.00 in0.0 mm 0.00 in0.0 mm
03:30 AM 66.0°F18.9°C 36.8°F2.7°C 34% Calm Calm -- 29.80 in1009.1 mb - 0.00 in0.0 mm 0.00 in0.0 mm
03:45 AM 64.3°F17.9°C 36.8°F2.7°C 36% Calm Calm -- 29.80 in1009.1 mb - 0.00 in0.0 mm 0.00 in0.0 mm
04:00 AM 63.1°F17.3°C 37.0°F2.8°C 38% Calm Calm -- 29.80 in1009.1 mb - 0.00 in0.0 mm 0.00 in0.0 mm
04:15 AM 61.9°F16.6°C 38.5°F3.6°C 42% Calm Calm -- 29.80 in1009.1 mb - 0.00 in0.0 mm 0.00 in0.0 mm
04:30 AM 61.4°F16.3°C 38.1°F3.4°C 42% Calm Calm -- 29.79 in1008.8 mb - 0.00 in0.0 mm 0.00 in0.0 mm
04:45 AM 60.8°F16.0°C 38.2°F3.4°C 43% Calm Calm -- 29.80 in1009.1 mb - 0.00 in0.0 mm 0.00 in0.0 mm
05:00 AM 61.1°F16.2°C 37.8°F3.2°C 42% Calm Calm -- 29.80 in1009.1 mb - 0.00 in0.0 mm 0.00 in0.0 mm
05:15 AM 60.8°F16.0°C 37.5°F3.1°C 42% Calm Calm -- 29.80 in1009.1 mb - 0.00 in0.0 mm 0.00 in0.0 mm
05:30 AM 59.9°F15.5°C 37.9°F3.3°C 44% Calm Calm -- 29.81 in1009.5 mb - 0.00 in0.0 mm 0.00 in0.0 mm
05:45 AM 61.1°F16.2°C 39.0°F3.9°C 44% 0.1 mph NNE0.2 kmh NNE -- 29.82 in1009.8 mb - 0.00 in0.0 mm 0.00 in0.0 mm
06:00 AM 61.0°F16.1°C 39.5°F4.2°C 45% Calm Calm -- 29.82 in1009.8 mb - 0.00 in0.0 mm 0.00 in0.0 mm
06:15 AM 61.4°F16.3°C 39.8°F4.3°C 45% Calm Calm -- 29.83 in1010.2 mb - 0.00 in0.0 mm 0.00 in0.0 mm
06:30 AM 62.0°F16.7°C 40.4°F4.7°C 45% Calm Calm -- 29.83 in1010.2 mb - 0.00 in0.0 mm 0.00 in0.0 mm
06:45 AM 64.8°F18.2°C 40.6°F4.8°C 41% Calm Calm -- 29.83 in1010.2 mb - 0.00 in0.0 mm 0.00 in0.0 mm
07:00 AM 66.8°F19.3°C 39.7°F4.3°C 37% Calm Calm -- 29.84 in1010.5 mb - 0.00 in0.0 mm 0.00 in0.0 mm
07:15 AM 68.3°F20.2°C 40.3°F4.6°C 36% Calm Calm 2.0 mph3.2 kmh 29.84 in1010.5 mb - 0.00 in0.0 mm 0.00 in0.0 mm
07:30 AM 68.9°F20.5°C 39.4°F4.1°C 34% 0.1 mph ESE0.2 kmh ESE 1.0 mph1.6 kmh 29.84 in1010.5 mb - 0.00 in0.0 mm 0.00 in0.0 mm
07:45 AM 69.5°F20.8°C 39.1°F3.9°C 33% Calm Calm 1.0 mph1.6 kmh 29.84 in1010.5 mb - 0.00 in0.0 mm 0.00 in0.0 mm
08:00 AM 70.7°F21.5°C 39.4°F4.1°C 32% Calm Calm 1.0 mph1.6 kmh 29.85 in1010.8 mb - 0.00 in0.0 mm 0.00 in0.0 mm
08:15 AM 72.2°F22.3°C 39.9°F4.4°C 31% Calm Calm 1.0 mph1.6 kmh 29.85 in1010.8 mb - 0.00 in0.0 mm 0.00 in0.0 mm
08:30 AM 72.4°F22.4°C 40.0°F4.4°C 31% 0.4 mph ENE0.6 kmh ENE 2.0 mph3.2 kmh 29.85 in1010.8 mb - 0.00 in0.0 mm 0.00 in0.0 mm
08:45 AM 72.7°F22.6°C 40.3°F4.6°C 31% 0.9 mph SSE1.4 kmh SSE 2.0 mph3.2 kmh 29.85 in1010.8 mb - 0.00 in0.0 mm 0.00 in0.0 mm
09:00 AM 74.0°F23.3°C 40.6°F4.8°C 30% Calm Calm -- 29.85 in1010.8 mb - 0.00 in0.0 mm 0.00 in0.0 mm
09:15 AM 75.3°F24.1°C 39.9°F4.4°C 28% 0.1 mph SE0.2 kmh SE -- 29.84 in1010.5 mb - 0.00 in0.0 mm 0.00 in0.0 mm
09:30 AM 76.8°F24.9°C 39.3°F4.1°C 26% 0.9 mph SE1.4 kmh SE 1.0 mph1.6 kmh 29.84 in1010.5 mb - 0.00 in0.0 mm 0.00 in0.0 mm
09:45 AM 77.2°F25.1°C 39.6°F4.2°C 26% 0.4 mph S0.6 kmh S 2.0 mph3.2 kmh 29.84 in1010.5 mb - 0.00 in0.0 mm 0.00 in0.0 mm
10:00 AM 77.0°F25.0°C 40.5°F4.7°C 27% 0.1 mph SW0.2 kmh SW 2.0 mph3.2 kmh 29.84 in1010.5 mb - 0.00 in0.0 mm 0.00 in0.0 mm
10:15 AM 77.7°F25.4°C 39.1°F3.9°C 25% 0.4 mph N0.6 kmh N 1.0 mph1.6 kmh 29.84 in1010.5 mb - 0.00 in0.0 mm 0.00 in0.0 mm
10:30 AM 78.4°F25.8°C 39.7°F4.3°C 25% 0.1 mph SE0.2 kmh SE 2.0 mph3.2 kmh 29.84 in1010.5 mb - 0.00 in0.0 mm 0.00 in0.0 mm
10:45 AM 79.4°F26.3°C 39.4°F4.1°C 24% 0.4 mph NNW0.6 kmh NNW 2.0 mph3.2 kmh 29.84 in1010.5 mb - 0.00 in0.0 mm 0.00 in0.0 mm
11:00 AM 80.3°F26.8°C 40.2°F4.6°C 24% 0.7 mph S1.1 kmh S 2.0 mph3.2 kmh 29.84 in1010.5 mb - 0.00 in0.0 mm 0.00 in0.0 mm
11:15 AM 81.2°F27.3°C 38.7°F3.7°C 22% 1.7 mph SW2.7 kmh SW 3.0 mph4.8 kmh 29.83 in1010.2 mb - 0.00 in0.0 mm 0.00 in0.0 mm
11:30 AM 80.7°F27.1°C 38.3°F3.5°C 22% 1.9 mph SW3.1 kmh SW 3.0 mph4.8 kmh 29.83 in1010.2 mb - 0.00 in0.0 mm 0.00 in0.0 mm
11:45 AM 80.8°F27.1°C 37.2°F2.9°C 21% 1.0 mph SW1.6 kmh SW 3.0 mph4.8 kmh 29.83 in1010.2 mb - 0.00 in0.0 mm 0.00 in0.0 mm
12:00 PM 81.1°F27.3°C 36.2°F2.3°C 20% 1.2 mph NW1.9 kmh NW 2.0 mph3.2 kmh 29.82 in1009.8 mb - 0.00 in0.0 mm 0.00 in0.0 mm
12:15 PM 81.1°F27.3°C 36.2°F2.3°C 20% 1.7 mph SW2.7 kmh SW 4.0 mph6.4 kmh 29.82 in1009.8 mb - 0.00 in0.0 mm 0.00 in0.0 mm
12:30 PM 82.3°F27.9°C 35.9°F2.2°C 19% 2.1 mph NNW3.4 kmh NNW 1.0 mph1.6 kmh 29.81 in1009.5 mb - 0.00 in0.0 mm 0.00 in0.0 mm
12:45 PM 81.9°F27.7°C 34.2°F1.2°C 18% 0.7 mph WNW1.1 kmh WNW 2.0 mph3.2 kmh 29.81 in1009.5 mb - 0.00 in0.0 mm 0.00 in0.0 mm
01:00 PM 82.5°F28.1°C 33.3°F0.7°C 17% 2.8 mph NW4.5 kmh NW 7.0 mph11.3 kmh 29.81 in1009.5 mb - 0.00 in0.0 mm 0.00 in0.0 mm
01:15 PM 82.6°F28.1°C 36.1°F2.3°C 19% Calm Calm 1.0 mph1.6 kmh 29.80 in1009.1 mb - 0.00 in0.0 mm 0.00 in0.0 mm
01:30 PM 83.2°F28.4°C 35.3°F1.8°C 18% 1.4 mph NW2.3 kmh NW 6.0 mph9.7 kmh 29.80 in1009.1 mb - 0.00 in0.0 mm 0.00 in0.0 mm
01:45 PM 83.2°F28.4°C 33.8°F1.0°C 17% 1.5 mph NW2.4 kmh NW 3.0 mph4.8 kmh 29.80 in1009.1 mb - 0.00 in0.0 mm 0.00 in0.0 mm
02:00 PM 85.0°F29.4°C 33.8°F1.0°C 16% 2.2 mph WSW3.5 kmh WSW 4.0 mph6.4 kmh 29.79 in1008.8 mb - 0.00 in0.0 mm 0.00 in0.0 mm
02:15 PM 84.1°F28.9°C 31.5°F-0.3°C 15% 2.3 mph W3.7 kmh W 4.0 mph6.4 kmh 29.79 in1008.8 mb - 0.00 in0.0 mm 0.00 in0.0 mm
02:30 PM 84.4°F29.1°C 31.7°F-0.2°C 15% 1.3 mph NW2.1 kmh NW 2.0 mph3.2 kmh 29.78 in1008.5 mb - 0.00 in0.0 mm 0.00 in0.0 mm
02:45 PM 84.8°F29.3°C 33.6°F0.9°C 16% 0.4 mph NNW0.6 kmh NNW 4.0 mph6.4 kmh 29.77 in1008.1 mb - 0.00 in0.0 mm 0.00 in0.0 mm
03:00 PM 84.8°F29.3°C 32.0°F0.0°C 15% 2.2 mph NW3.5 kmh NW 4.0 mph6.4 kmh 29.77 in1008.1 mb - 0.00 in0.0 mm 0.00 in0.0 mm
03:15 PM 84.7°F29.3°C 35.0°F1.7°C 17% 0.9 mph W1.4 kmh W 6.0 mph9.7 kmh 29.76 in1007.8 mb - 0.00 in0.0 mm 0.00 in0.0 mm
03:30 PM 85.1°F29.5°C 33.8°F1.0°C 16% 0.9 mph NW1.4 kmh NW 4.0 mph6.4 kmh 29.76 in1007.8 mb - 0.00 in0.0 mm 0.00 in0.0 mm
03:45 PM 84.9°F29.4°C 32.1°F0.1°C 15% 1.7 mph SW2.7 kmh SW 4.0 mph6.4 kmh 29.75 in1007.5 mb - 0.00 in0.0 mm 0.00 in0.0 mm
04:00 PM 85.2°F29.6°C 32.3°F0.2°C 15% 0.9 mph SW1.4 kmh SW 5.0 mph8.0 kmh 29.75 in1007.5 mb - 0.00 in0.0 mm 0.00 in0.0 mm
04:15 PM 85.2°F29.6°C 33.9°F1.1°C 16% 0.1 mph SE0.2 kmh SE 1.0 mph1.6 kmh 29.74 in1007.1 mb - 0.00 in0.0 mm 0.00 in0.0 mm
04:30 PM 85.3°F29.6°C 30.7°F-0.7°C 14% 1.8 mph NW2.9 kmh NW 4.0 mph6.4 kmh 29.73 in1006.8 mb - 0.00 in0.0 mm 0.00 in0.0 mm
04:45 PM 84.8°F29.3°C 32.0°F0.0°C 15% 0.4 mph WSW0.6 kmh WSW 2.0 mph3.2 kmh 29.73 in1006.8 mb - 0.00 in0.0 mm 0.00 in0.0 mm
05:00 PM 85.2°F29.6°C 32.3°F0.2°C 15% 0.6 mph NW1.0 kmh NW 4.0 mph6.4 kmh 29.73 in1006.8 mb - 0.00 in0.0 mm 0.00 in0.0 mm
05:15 PM 84.3°F29.1°C 31.6°F-0.2°C 15% 0.5 mph S0.8 kmh S -- 29.73 in1006.8 mb - 0.00 in0.0 mm 0.00 in0.0 mm
05:30 PM 83.4°F28.6°C 30.9°F-0.6°C 15% 0.7 mph S1.1 kmh S 1.0 mph1.6 kmh 29.72 in1006.4 mb - 0.00 in0.0 mm 0.00 in0.0 mm
05:45 PM 83.1°F28.4°C 30.7°F-0.7°C 15% 0.4 mph WSW0.6 kmh WSW 2.0 mph3.2 kmh 29.73 in1006.8 mb - 0.00 in0.0 mm 0.00 in0.0 mm
06:00 PM 83.1°F28.4°C 32.3°F0.2°C 16% 1.4 mph NW2.3 kmh NW 1.0 mph1.6 kmh 29.72 in1006.4 mb - 0.00 in0.0 mm 0.00 in0.0 mm
06:15 PM 82.6°F28.1°C 30.2°F-1.0°C 15% 1.2 mph W1.9 kmh W 5.0 mph8.0 kmh 29.73 in1006.8 mb - 0.00 in0.0 mm 0.00 in0.0 mm
06:30 PM 82.1°F27.8°C 29.8°F-1.2°C 15% 1.1 mph SW1.8 kmh SW 3.0 mph4.8 kmh 29.72 in1006.4 mb - 0.00 in0.0 mm 0.00 in0.0 mm
06:45 PM 81.7°F27.6°C 29.5°F-1.4°C 15% 1.5 mph WSW2.4 kmh WSW 3.0 mph4.8 kmh 29.73 in1006.8 mb - 0.00 in0.0 mm 0.00 in0.0 mm
07:00 PM 81.1°F27.3°C 29.1°F-1.6°C 15% 1.1 mph WNW1.8 kmh WNW 2.0 mph3.2 kmh 29.73 in1006.8 mb - 0.00 in0.0 mm 0.00 in0.0 mm
07:15 PM 80.8°F27.1°C 30.4°F-0.9°C 16% 0.9 mph SW1.4 kmh SW 2.0 mph3.2 kmh 29.73 in1006.8 mb - 0.00 in0.0 mm 0.00 in0.0 mm
07:30 PM 80.0°F26.7°C 29.7°F-1.3°C 16% 0.1 mph SW0.2 kmh SW 1.0 mph1.6 kmh 29.73 in1006.8 mb - 0.00 in0.0 mm 0.00 in0.0 mm
07:45 PM 79.4°F26.3°C 29.3°F-1.5°C 16% 0.1 mph ESE0.2 kmh ESE -- 29.73 in1006.8 mb - 0.00 in0.0 mm 0.00 in0.0 mm
08:00 PM 78.4°F25.8°C 30.0°F-1.1°C 17% Calm Calm -- 29.73 in1006.8 mb - 0.00 in0.0 mm 0.00 in0.0 mm
08:15 PM 77.5°F25.3°C 29.2°F-1.6°C 17% Calm Calm -- 29.73 in1006.8 mb - 0.00 in0.0 mm 0.00 in0.0 mm
08:30 PM 76.6°F24.8°C 29.9°F-1.2°C 18% Calm Calm -- 29.73 in1006.8 mb - 0.00 in0.0 mm 0.00 in0.0 mm
08:45 PM 74.8°F23.8°C 31.0°F-0.6°C 20% Calm Calm -- 29.74 in1007.1 mb - 0.00 in0.0 mm 0.00 in0.0 mm
09:00 PM 73.4°F23.0°C 32.2°F0.1°C 22% Calm Calm -- 29.74 in1007.1 mb - 0.00 in0.0 mm 0.00 in0.0 mm
09:15 PM 72.5°F22.5°C 32.6°F0.3°C 23% Calm Calm -- 29.75 in1007.5 mb - 0.00 in0.0 mm 0.00 in0.0 mm
09:30 PM 73.4°F23.0°C 32.2°F0.1°C 22% Calm Calm -- 29.75 in1007.5 mb - 0.00 in0.0 mm 0.00 in0.0 mm
09:45 PM 73.6°F23.1°C 32.4°F0.2°C 22% Calm Calm -- 29.75 in1007.5 mb - 0.00 in0.0 mm 0.00 in0.0 mm
10:00 PM 73.5°F23.1°C 32.3°F0.2°C 22% Calm Calm -- 29.76 in1007.8 mb - 0.00 in0.0 mm 0.00 in0.0 mm
10:15 PM 71.7°F22.1°C 32.9°F0.5°C 24% Calm Calm -- 29.76 in1007.8 mb - 0.00 in0.0 mm 0.00 in0.0 mm
10:30 PM 70.0°F21.1°C 33.5°F0.8°C 26% Calm Calm -- 29.76 in1007.8 mb - 0.00 in0.0 mm 0.00 in0.0 mm
10:45 PM 68.7°F20.4°C 33.4°F0.8°C 27% Calm Calm -- 29.76 in1007.8 mb - 0.00 in0.0 mm 0.00 in0.0 mm
11:00 PM 69.6°F20.9°C 35.0°F1.7°C 28% Calm Calm -- 29.76 in1007.8 mb - 0.00 in0.0 mm 0.00 in0.0 mm
11:15 PM 69.6°F20.9°C 34.1°F1.2°C 27% Calm Calm -- 29.75 in1007.5 mb - 0.00 in0.0 mm 0.00 in0.0 mm
11:30 PM 67.8°F19.9°C 35.2°F1.8°C 30% Calm Calm -- 29.76 in1007.8 mb - 0.00 in0.0 mm 0.00 in0.0 mm
11:45 PM 67.3°F19.6°C 38.0°F3.3°C 34% Calm Calm -- 29.75 in1007.5 mb - 0.00 in0.0 mm 0.00 in0.0 mm